ADDS METAR Data INFO
IDs: Format: Raw Decoded Include TAF

Data at: 0404 UTC 11 Dec 2017

KGCD 110355Z AUTO 08005KT 10SM CLR 00/M06 A3048 RMK AO2 T10021062
KGCD 110335Z AUTO 08004KT 10SM CLR 01/M06 A3048 RMK AO2 T00071064
KGCD 110315Z AUTO 08006KT 10SM CLR 01/M06 A3048 RMK AO2 T00121065
KGCD 110255Z AUTO 10007KT 10SM CLR 02/M06 A3047 RMK AO2 T00191064
KGCD 110235Z AUTO 08007KT 10SM CLR 02/M06 A3047 RMK AO2 T00221065
KGCD 110215Z AUTO 10006KT 10SM CLR 03/M06 A3047 RMK AO2 T00251063
KGCD 110155Z AUTO 11007KT 080V140 10SM CLR 03/M06 A3047 RMK AO2 T00311063
KGCD 110135Z AUTO 10008KT 10SM CLR 03/M06 A3047 RMK AO2 T00271058
KGCD 110115Z AUTO 08006KT 10SM CLR 03/M06 A3046 RMK AO2 T00271058
KGCD 110055Z AUTO 09004KT 10SM CLR 04/M06 A3046 RMK AO2 T00361061
KGCD 110035Z AUTO 09004KT 10SM CLR 04/M06 A3046 RMK AO2 T00361061
KGCD 110015Z AUTO 08005KT 10SM CLR 05/M06 A3046 RMK AO2 T00461063
KGCD 102355Z AUTO 08005KT 10SM CLR 07/M07 A3046 RMK AO2 T00661068 10083 20009
KGCD 102335Z AUTO 09007KT 10SM CLR 07/M07 A3046 RMK AO2 T00721070
KGCD 102315Z AUTO 09007KT 10SM CLR 08/M07 A3046 RMK AO2 T00751071
KGCD 102255Z AUTO 08007KT 10SM CLR 08/M08 A3046 RMK AO2 T00801076
KGCD 102235Z AUTO 08008KT 10SM CLR 08/M07 A3046 RMK AO2 T00821075
KGCD 102215Z AUTO 08006KT 10SM CLR 08/M07 A3046 RMK AO2 T00811069
KGCD 102155Z AUTO 07007KT 10SM CLR 08/M08 A3046 RMK AO2 T00791076
KGCD 102135Z AUTO 10007KT 10SM CLR 08/M08 A3047 RMK AO2 T00751076
KGCD 102115Z AUTO 08008KT 10SM CLR 07/M08 A3047 RMK AO2 T00701076
KGCD 102055Z AUTO 08007KT 10SM CLR 06/M07 A3049 RMK AO2 T00591073
KGCD 102035Z AUTO 09008KT 10SM CLR 05/M08 A3049 RMK AO2 T00511081
KGCD 102015Z AUTO 08005KT 10SM CLR 05/M08 A3050 RMK AO2 T00451080
KGCD 101955Z AUTO 08006KT 10SM CLR 04/M08 A3051 RMK AO2 T00441083
KGCD 101935Z AUTO 08004KT 10SM CLR 04/M08 A3052 RMK AO2 T00361084
KGCD 101915Z AUTO 07004KT 10SM CLR 03/M09 A3053 RMK AO2 T00331091
KGCD 101855Z AUTO 08007KT 10SM CLR 03/M09 A3053 RMK AO2 T00261091
KGCD 101835Z AUTO 08005KT 10SM CLR 02/M09 A3054 RMK AO2 T00201092
KGCD 101815Z AUTO 10007KT 10SM CLR 01/M09 A3055 RMK AO2 T00141089
KGCD 101755Z AUTO 08007KT 10SM CLR 01/M09 A3056 RMK AO2 T00081086 10008 21049
KGCD 101735Z AUTO 09007KT 10SM CLR 00/M09 A3056 RMK AO2 T10021087
KGCD 101715Z AUTO 10009KT 10SM CLR M01/M08 A3057 RMK AO2 T10101082
KGCD 101655Z AUTO 09007KT 10SM CLR M02/M09 A3056 RMK AO2 T10161086
KGCD 101635Z AUTO 10007KT 10SM CLR M02/M09 A3056 RMK AO2 T10221087
KGCD 101615Z AUTO 09006KT 10SM CLR M03/M09 A3056 RMK AO2 T10301092
KGCD 101555Z AUTO 10007KT 10SM CLR M02/M10 A3055 RMK AO2 T10201100
KGCD 101535Z AUTO 10007KT 10SM CLR M03/M09 A3054 RMK AO2 T10331094
KGCD 101515Z AUTO 10007KT 10SM CLR M03/M10 A3054 RMK AO2 T10261099
KGCD 101455Z AUTO 11008KT 10SM CLR M03/M10 A3054 RMK AO2 T10271096
KGCD 101435Z AUTO 10007KT 10SM CLR M04/M09 A3054 RMK AO2 T10421092
KGCD 101415Z AUTO 10007KT 10SM CLR M05/M09 A3054 RMK AO2 T10491090
KGCD 101355Z AUTO 07009KT 10SM CLR M05/M09 A3054 RMK AO2 T10481089
KGCD 101335Z AUTO 09008KT 10SM CLR M04/M08 A3053 RMK AO2 T10391084
KGCD 101315Z AUTO 10006KT 10SM CLR M03/M09 A3053 RMK AO2 T10291090
KGCD 101255Z AUTO 12006KT 10SM CLR M02/M10 A3054 RMK AO2 T10231096
KGCD 101235Z AUTO 13006KT 10SM CLR M03/M09 A3054 RMK AO2 T10311090
KGCD 101215Z AUTO 14009KT 10SM CLR M01/M10 A3053 RMK AO2 T10151101
KGCD 101155Z AUTO 12007KT 10SM CLR M01/M10 A3053 RMK AO2 T10121100 11005 21060
KGCD 101135Z AUTO 12010G15KT 10SM CLR M01/M09 A3054 RMK AO2 T10111095
KGCD 101115Z AUTO 12010KT 10SM CLR M02/M09 A3054 RMK AO2 T10181088
KGCD 101055Z AUTO 11007KT 10SM CLR M04/M08 A3055 RMK AO2 T10361077
KGCD 101035Z AUTO 09009KT 10SM CLR M03/M07 A3055 RMK AO2 T10301071
KGCD 101015Z AUTO 10009KT 10SM CLR M04/M07 A3056 RMK AO2 T10401069
KGCD 100955Z AUTO 10008KT 10SM CLR M03/M07 A3056 RMK AO2 T10331067
KGCD 100935Z AUTO 09006KT 10SM CLR M06/M07 A3055 RMK AO2 T10571072
KGCD 100915Z AUTO 00000KT 10SM CLR M05/M06 A3056 RMK AO2 T10471058
KGCD 100855Z AUTO 00000KT 10SM CLR M05/M06 A3056 RMK AO2 T10521062
KGCD 100835Z AUTO 28003KT 10SM CLR M05/M07 A3056 RMK AO2 T10511068
KGCD 100815Z AUTO 00000KT 10SM CLR M04/M07 A3055 RMK AO2 T10401070
KGCD 100755Z AUTO 09006KT 10SM CLR M02/M07 A3055 RMK AO2 T10251069 400791046
KGCD 100735Z AUTO 09006KT 10SM CLR M02/M07 A3055 RMK AO2 T10211067
KGCD 100715Z AUTO 00000KT 10SM CLR M04/M07 A3055 RMK AO2 T10371068
KGCD 100655Z AUTO 09005KT 10SM CLR 00/M07 A3055 RMK AO2 T10051070
KGCD 100635Z AUTO 10006KT 10SM CLR M01/M06 A3054 RMK AO2 T10071063
KGCD 100615Z AUTO 10007KT 10SM CLR M01/M06 A3054 RMK AO2 T10131060
KGCD 100555Z AUTO 08008KT 10SM CLR M02/M06 A3054 RMK AO2 T10181056 10047 21029
KGCD 100535Z AUTO 08009KT 10SM CLR M01/M05 A3054 RMK AO2 T10151053
KGCD 100515Z AUTO 09006KT 10SM CLR M01/M05 A3054 RMK AO2 T10141055
KGCD 100455Z AUTO 09005KT 10SM CLR M02/M05 A3054 RMK AO2 T10201054
KGCD 100435Z AUTO 00000KT 10SM CLR M02/M06 A3054 RMK AO2 T10251057
KGCD 100415Z AUTO 09006KT 10SM CLR M02/M05 A3054 RMK AO2 T10161055
KGCD 100355Z AUTO 09004KT 10SM CLR M02/M06 A3054 RMK AO2 T10221058
KGCD 100335Z AUTO 08003KT 10SM CLR 00/M05 A3054 RMK AO2 T00001055
KGCD 100315Z AUTO 08007KT 10SM CLR 00/M05 A3054 RMK AO2 T00011052
KGCD 100255Z AUTO 07009KT 10SM CLR 01/M05 A3053 RMK AO2 T00071050
KGCD 100235Z AUTO 09009KT 10SM CLR 01/M05 A3052 RMK AO2 T00111046
KGCD 100215Z AUTO 09007KT 10SM CLR 01/M05 A3052 RMK AO2 T00141047
KGCD 100155Z AUTO 09005KT 10SM CLR 02/M05 A3052 RMK AO2 T00171048
KGCD 100135Z AUTO 09003KT 10SM CLR 03/M05 A3051 RMK AO2 T00251047
KGCD 100115Z AUTO 08005KT 10SM CLR 04/M05 A3051 RMK AO2 T00361047
KGCD 100055Z AUTO 09006KT 10SM CLR 04/M04 A3050 RMK AO2 T00401045
KGCD 100035Z AUTO 07006KT 10SM CLR 05/M04 A3050 RMK AO2 T00451045
KGCD 100015Z AUTO 09006KT 10SM CLR 05/M04 A3049 RMK AO2 T00461045
KGCD 092355Z AUTO 11004KT 10SM CLR 05/M04 A3049 RMK AO2 T00451043 10079 20011
KGCD 092335Z AUTO 11004KT 10SM CLR 05/M04 A3049 RMK AO2 T00531045
KGCD 092315Z AUTO 00000KT 10SM CLR 06/M04 A3049 RMK AO2 T00551044
KGCD 092255Z AUTO 00000KT 10SM CLR 06/M04 A3050 RMK AO2 T00641044
KGCD 092235Z AUTO 27003KT 10SM CLR 06/M04 A3049 RMK AO2 T00631045
KGCD 092215Z AUTO 00000KT 10SM CLR 06/M04 A3049 RMK AO2 T00641044
KGCD 092155Z AUTO 00000KT 10SM CLR 07/M07 A3049 RMK AO2 T00691071
KGCD 092135Z AUTO 00000KT 10SM CLR 08/M07 A3049 RMK AO2 T00771066
KGCD 092115Z AUTO 00000KT 10SM CLR 07/M04 A3049 RMK AO2 T00651040
KGCD 092055Z AUTO 00000KT 10SM CLR 06/M04 A3050 RMK AO2 T00611037
KGCD 092035Z AUTO 00000KT 10SM CLR 05/M04 A3050 RMK AO2 T00461037
KGCD 092015Z AUTO 00000KT 10SM CLR 05/M04 A3051 RMK AO2 T00461043
KGCD 091955Z AUTO 00000KT 10SM CLR 06/M07 A3052 RMK AO2 T00581071
KGCD 091935Z AUTO 05003KT 10SM CLR 06/M08 A3052 RMK AO2 T00561076
KGCD 091915Z AUTO 09006KT 10SM CLR 06/M08 A3052 RMK AO2 T00551076
KGCD 091855Z AUTO 08008KT 10SM CLR 05/M08 A3052 RMK AO2 T00461078
KGCD 091835Z AUTO 10007KT 10SM CLR 03/M07 A3053 RMK AO2 T00291075
KGCD 091815Z AUTO 10009KT 10SM CLR 01/M07 A3054 RMK AO2 T00131074
KGCD 091755Z AUTO 09010KT 10SM CLR 01/M07 A3054 RMK AO2 T00101075 10010 21027
KGCD 091735Z AUTO 09008KT 10SM CLR 00/M07 A3055 RMK AO2 T00021071
KGCD 091715Z AUTO 09007KT 10SM CLR 00/M07 A3055 RMK AO2 T10011068
KGCD 091655Z AUTO 09007KT 10SM CLR M01/M07 A3054 RMK AO2 T10061072
KGCD 091635Z AUTO 07008KT 10SM CLR M01/M07 A3054 RMK AO2 T10131074
KGCD 091615Z AUTO 09005KT 10SM CLR M02/M07 A3054 RMK AO2 T10201075